Time;durP1;ratioP1;P1;durP2;ratioP2;P2;SDS_P1;SDS_P2;PMS_P1;PMS_P2;Temp;Humidity;BMP_temperature;BMP_pressure;BME280_temperature;BME280_humidity;BME280_pressure;Samples;Min_cycle;Max_cycle;Signal;HPM_P1;HPM_P2
2022/07/21 00:00:49;;;;;;;18.20;10.03;;;20.60;99.90;;;;;;5063975;28;20064;-77
2022/07/21 00:03:16;;;;;;;19.40;11.30;;;20.50;99.90;;;;;;5031960;28;20094;-77
2022/07/21 00:05:42;;;;;;;16.30;11.03;;;20.40;99.90;;;;;;5060302;28;20048;-76
2022/07/21 00:08:07;;;;;;;17.37;10.33;;;20.40;99.90;;;;;;5048479;28;20049;-77
2022/07/21 00:10:33;;;;;;;16.73;10.80;;;20.40;99.90;;;;;;5027753;28;20040;-76
2022/07/21 00:12:59;;;;;;;15.57;10.90;;;20.30;99.90;;;;;;5048040;28;20044;-76
2022/07/21 00:15:27;;;;;;;17.57;11.47;;;20.30;99.90;;;;;;5062497;28;20515;-77
2022/07/21 00:17:53;;;;;;;16.43;11.47;;;20.30;99.90;;;;;;5055016;28;20032;-78
2022/07/21 00:20:21;;;;;;;20.03;11.27;;;20.30;99.90;;;;;;5041317;28;20048;-78
2022/07/21 00:22:47;;;;;;;19.47;11.90;;;20.20;99.90;;;;;;5040772;28;20045;-77
2022/07/21 00:25:14;;;;;;;18.40;11.50;;;20.10;99.90;;;;;;5064738;28;20055;-78
2022/07/21 00:27:40;;;;;;;18.77;11.30;;;20.10;99.90;;;;;;5060762;28;20127;-79
2022/07/21 00:30:08;;;;;;;14.47;11.27;;;20.10;99.90;;;;;;5048709;28;20052;-78
2022/07/21 00:32:35;;;;;;;21.50;11.43;;;20.10;99.90;;;;;;5054494;28;20040;-78
2022/07/21 00:35:01;;;;;;;18.47;12.13;;;20.10;99.90;;;;;;5047172;28;20071;-79
2022/07/21 00:37:28;;;;;;;18.20;13.40;;;20.00;99.90;;;;;;5062934;28;20067;-78
2022/07/21 00:39:54;;;;;;;20.63;13.60;;;20.00;99.90;;;;;;5045313;28;20181;-78
2022/07/21 00:42:22;;;;;;;18.20;12.73;;;20.00;99.90;;;;;;5031768;28;20041;-78
2022/07/21 00:44:48;;;;;;;17.97;12.10;;;19.90;99.90;;;;;;5049008;28;20051;-80
2022/07/21 00:47:14;;;;;;;20.60;14.07;;;19.90;99.90;;;;;;5028411;28;20048;-79
2022/07/21 00:49:41;;;;;;;17.43;12.30;;;19.90;99.90;;;;;;5042931;28;20036;-80
2022/07/21 00:52:06;;;;;;;22.30;12.57;;;19.80;99.90;;;;;;5028525;28;20141;-80
2022/07/21 00:54:34;;;;;;;20.57;13.67;;;19.80;99.90;;;;;;5025692;28;20503;-79
2022/07/21 00:57:00;;;;;;;22.63;13.73;;;19.80;99.90;;;;;;5049494;28;20072;-81
2022/07/21 00:59:26;;;;;;;19.60;12.93;;;19.70;99.90;;;;;;5067543;28;20503;-81
2022/07/21 01:01:52;;;;;;;19.97;13.00;;;19.70;99.90;;;;;;5067478;28;20051;-81
2022/07/21 01:04:18;;;;;;;17.63;12.57;;;19.60;99.90;;;;;;5049705;28;20123;-80
2022/07/21 01:06:44;;;;;;;24.53;13.80;;;19.60;99.90;;;;;;5051209;28;20040;-81
2022/07/21 01:09:10;;;;;;;21.60;13.83;;;19.60;99.90;;;;;;5031301;28;20411;-81
2022/07/21 01:11:39;;;;;;;21.00;12.73;;;19.70;99.90;;;;;;5051913;28;20040;-80
2022/07/21 01:14:05;;;;;;;18.63;12.47;;;19.60;99.90;;;;;;5048620;28;20110;-81
2022/07/21 01:16:31;;;;;;;26.47;13.20;;;19.60;99.90;;;;;;5061284;28;20047;-80
2022/07/21 01:18:58;;;;;;;17.63;14.10;;;19.60;99.90;;;;;;5063404;28;20044;-79
2022/07/21 01:21:31;;;;;;;19.07;12.50;;;19.60;99.90;;;;;;5044698;28;20048;-81
2022/07/21 01:23:57;;;;;;;;;;;19.60;99.90;;;;;;5046366;28;20048;-81
2022/07/21 01:26:23;;;;;;;17.80;12.03;;;19.60;99.90;;;;;;5065816;28;19938;-80
2022/07/21 01:28:49;;;;;;;23.40;14.10;;;19.70;99.90;;;;;;5060008;28;20048;-80
2022/07/21 01:31:15;;;;;;;21.97;14.97;;;19.70;99.90;;;;;;5052616;28;20051;-79
2022/07/21 01:33:41;;;;;;;22.83;13.33;;;19.70;99.90;;;;;;5047888;28;20434;-80
2022/07/21 01:36:07;;;;;;;21.10;14.23;;;19.70;99.90;;;;;;5049169;28;20193;-80
2022/07/21 01:41:34;;;;;;;19.33;13.97;;;19.80;99.90;;;;;;5048162;28;20071;-80
2022/07/21 01:44:03;;;;;;;21.33;14.90;;;19.80;99.90;;;;;;5065561;28;20040;-80
2022/07/21 01:46:34;;;;;;;16.50;12.50;;;19.80;99.90;;;;;;5049924;28;20174;-79
2022/07/21 01:49:00;;;;;;;19.30;14.97;;;19.90;99.90;;;;;;5061778;28;20048;-79
2022/07/21 01:51:26;;;;;;;19.97;14.63;;;19.80;99.90;;;;;;5048087;28;20052;-79
2022/07/21 01:53:54;;;;;;;24.93;15.03;;;19.80;99.90;;;;;;5065895;28;20079;-79
2022/07/21 01:56:21;;;;;;;26.77;16.57;;;19.80;99.90;;;;;;5063766;28;20044;-78
2022/07/21 01:58:47;;;;;;;30.63;17.20;;;19.70;99.90;;;;;;5051886;28;20033;-79
2022/07/21 02:01:15;;;;;;;28.90;18.73;;;19.70;99.90;;;;;;5052449;28;20049;-79
2022/07/21 02:03:41;;;;;;;27.53;18.80;;;19.60;99.90;;;;;;5060638;28;20040;-79
2022/07/21 02:06:08;;;;;;;53.30;23.13;;;19.60;99.90;;;;;;5057499;28;20662;-80
2022/07/21 02:08:34;;;;;;;26.37;16.83;;;19.60;99.90;;;;;;5056852;28;20067;-81
2022/07/21 02:11:02;;;;;;;32.63;19.07;;;19.60;99.90;;;;;;5059690;28;20101;-78
2022/07/21 02:13:28;;;;;;;26.60;18.30;;;19.60;99.90;;;;;;5067522;28;20142;-79
2022/07/21 02:15:54;;;;;;;27.57;19.27;;;19.60;99.90;;;;;;5069442;28;20488;-79
2022/07/21 02:18:20;;;;;;;26.23;18.97;;;19.60;99.90;;;;;;5034420;28;20064;-79
2022/07/21 02:20:50;;;;;;;41.00;22.13;;;19.60;99.90;;;;;;5069058;28;20057;-78
2022/07/21 02:23:16;;;;;;;31.47;19.93;;;19.60;99.90;;;;;;5040721;28;20036;-78
2022/07/21 02:25:42;;;;;;;28.43;19.40;;;19.60;99.90;;;;;;5065397;28;20045;-78
2022/07/21 02:28:10;;;;;;;25.60;17.63;;;19.60;99.90;;;;;;5046717;28;20399;-77
2022/07/21 02:30:36;;;;;;;22.30;17.27;;;19.60;99.90;;;;;;5066041;28;20606;-78
2022/07/21 02:33:02;;;;;;;23.83;18.00;;;19.50;99.90;;;;;;5049524;28;20098;-77
2022/07/21 02:35:28;;;;;;;26.20;18.17;;;19.50;99.90;;;;;;5033616;28;20089;-78
2022/07/21 02:37:54;;;;;;;18.63;16.43;;;19.40;99.90;;;;;;5034307;28;20454;-78
2022/07/21 02:40:20;;;;;;;20.63;16.93;;;19.40;99.90;;;;;;5051274;28;20045;-79
2022/07/21 02:42:46;;;;;;;23.77;17.97;;;19.30;99.90;;;;;;5049465;28;20131;-78
2022/07/21 02:45:13;;;;;;;23.53;17.53;;;19.30;99.90;;;;;;5067041;28;20048;-78
2022/07/21 02:47:50;;;;;;;25.30;18.80;;;19.30;99.90;;;;;;5049991;28;20052;-79
2022/07/21 02:50:17;;;;;;;24.53;19.80;;;19.30;99.90;;;;;;5030542;28;20127;-78
2022/07/21 02:52:42;;;;;;;25.47;19.40;;;19.20;99.90;;;;;;5052382;28;20123;-79
2022/07/21 02:55:09;;;;;;;27.23;20.33;;;19.20;99.90;;;;;;5051047;28;20128;-78
2022/07/21 02:57:34;;;;;;;25.63;19.77;;;19.10;99.90;;;;;;5049673;28;20530;-79
2022/07/21 03:00:00;;;;;;;26.07;20.33;;;19.10;99.90;;;;;;5066362;28;20044;-79
2022/07/21 03:02:27;;;;;;;28.50;21.77;;;19.10;99.90;;;;;;5049088;28;20072;-79
2022/07/21 03:04:54;;;;;;;31.93;22.73;;;19.20;99.90;;;;;;5066567;28;20044;-79
2022/07/21 03:07:20;;;;;;;29.77;19.47;;;19.10;99.90;;;;;;5067457;28;20064;-78
2022/07/21 03:09:46;;;;;;;30.20;21.83;;;19.20;99.90;;;;;;5056635;28;20041;-78
2022/07/21 03:12:12;;;;;;;33.00;21.93;;;19.20;99.90;;;;;;5051494;28;20117;-79
2022/07/21 03:14:38;;;;;;;31.77;23.60;;;19.10;99.90;;;;;;5044607;28;20047;-79
2022/07/21 03:17:03;;;;;;;33.73;23.73;;;19.10;99.90;;;;;;5045241;28;20037;-78
2022/07/21 03:19:31;;;;;;;34.93;25.10;;;19.10;99.90;;;;;;5062075;28;20087;-78
2022/07/21 03:21:56;;;;;;;30.23;22.50;;;19.10;99.90;;;;;;5031825;28;20044;-79
2022/07/21 03:24:22;;;;;;;30.33;23.70;;;19.10;99.90;;;;;;5038914;28;20518;-79
2022/07/21 03:26:48;;;;;;;32.27;23.73;;;19.10;99.90;;;;;;5033673;28;20052;-79
2022/07/21 03:29:15;;;;;;;32.03;24.90;;;19.10;99.90;;;;;;5038018;28;20059;-79
2022/07/21 03:31:41;;;;;;;34.87;25.33;;;19.10;99.90;;;;;;5058667;28;20609;-80
2022/07/21 03:34:06;;;;;;;31.50;24.10;;;19.10;99.90;;;;;;5046872;28;20044;-79
2022/07/21 03:36:33;;;;;;;29.40;23.20;;;19.10;99.90;;;;;;5067339;28;20056;-80
2022/07/21 03:38:59;;;;;;;28.43;22.83;;;19.10;99.90;;;;;;5047116;28;20393;-79
2022/07/21 03:41:25;;;;;;;32.13;23.87;;;19.20;99.90;;;;;;5033461;28;20094;-79
2022/07/21 03:43:51;;;;;;;76.03;34.33;;;19.20;99.90;;;;;;5060872;28;20040;-79
2022/07/21 03:46:16;;;;;;;44.20;28.97;;;19.20;99.90;;;;;;5029905;28;20434;-79
2022/07/21 03:48:42;;;;;;;50.10;29.30;;;19.20;99.90;;;;;;5062767;28;20110;-79
2022/07/21 03:51:09;;;;;;;32.57;23.20;;;19.20;99.90;;;;;;5028740;28;20055;-79
2022/07/21 03:53:36;;;;;;;33.60;23.97;;;19.20;99.90;;;;;;5066310;28;20029;-79
2022/07/21 03:56:02;;;;;;;34.97;24.83;;;19.20;99.90;;;;;;5060786;28;20103;-78
2022/07/21 03:58:27;;;;;;;32.53;25.03;;;19.20;99.90;;;;;;5064117;28;20037;-78
2022/07/21 04:00:53;;;;;;;37.80;27.07;;;19.20;99.90;;;;;;5038942;28;20052;-78
2022/07/21 04:03:19;;;;;;;37.37;27.53;;;19.20;99.90;;;;;;5062881;28;20041;-77
2022/07/21 04:05:45;;;;;;;37.87;28.20;;;19.30;99.90;;;;;;5063409;28;20310;-78
2022/07/21 04:08:13;;;;;;;38.43;27.77;;;19.20;99.90;;;;;;5054437;28;20041;-77
2022/07/21 04:10:41;;;;;;;40.77;28.83;;;19.30;99.90;;;;;;5049464;28;20068;-77
2022/07/21 04:13:09;;;;;;;53.60;33.90;;;19.20;99.90;;;;;;5027570;28;20393;-77
2022/07/21 04:15:36;;;;;;;46.17;31.70;;;19.20;99.90;;;;;;5061801;28;20128;-77
2022/07/21 04:18:02;;;;;;;42.37;31.60;;;19.20;99.90;;;;;;5061732;28;20067;-78
2022/07/21 04:20:28;;;;;;;55.37;37.27;;;19.20;99.90;;;;;;5046702;28;20072;-78
2022/07/21 04:22:54;;;;;;;48.13;35.83;;;19.20;99.90;;;;;;5061386;28;20533;-77
2022/07/21 04:25:21;;;;;;;51.03;36.63;;;19.20;99.90;;;;;;5027138;28;20037;-78
2022/07/21 04:27:49;;;;;;;55.10;37.83;;;19.20;99.90;;;;;;5021243;28;20075;-78
2022/07/21 04:30:17;;;;;;;49.27;37.83;;;19.20;99.90;;;;;;5054544;28;20052;-78
2022/07/21 04:32:43;;;;;;;57.03;41.03;;;19.20;99.90;;;;;;5030666;28;20037;-78
2022/07/21 04:35:10;;;;;;;51.80;39.53;;;19.20;99.90;;;;;;5044410;28;20419;-78
2022/07/21 04:37:36;;;;;;;56.00;39.87;;;19.20;99.90;;;;;;5063973;28;20063;-77
2022/07/21 04:40:05;;;;;;;49.80;38.30;;;19.20;99.90;;;;;;5047061;28;20109;-78
2022/07/21 04:42:31;;;;;;;52.90;40.10;;;19.20;99.90;;;;;;5043490;28;20040;-78
2022/07/21 04:44:58;;;;;;;49.23;39.70;;;19.20;99.90;;;;;;5047329;28;20036;-78
2022/07/21 04:47:24;;;;;;;49.63;40.57;;;19.30;99.90;;;;;;5026736;28;20516;-78
2022/07/21 04:49:49;;;;;;;52.37;41.57;;;19.20;99.90;;;;;;5063265;28;20049;-77
2022/07/21 04:52:15;;;;;;;52.83;41.93;;;19.20;99.90;;;;;;5031384;28;20051;-78
2022/07/21 04:54:41;;;;;;;60.53;43.33;;;19.20;99.90;;;;;;5042932;28;20044;-78
2022/07/21 04:57:07;;;;;;;47.13;39.63;;;19.20;99.90;;;;;;5048099;28;20106;-78
2022/07/21 04:59:33;;;;;;;48.93;39.27;;;19.20;99.90;;;;;;5057680;28;20072;-77
2022/07/21 05:02:01;;;;;;;55.13;42.90;;;19.30;99.90;;;;;;5048733;28;20086;-78
2022/07/21 05:04:27;;;;;;;46.20;38.80;;;19.20;99.90;;;;;;5043621;28;20060;-78
2022/07/21 05:06:53;;;;;;;55.67;40.27;;;19.20;99.90;;;;;;5048273;28;20044;-78
2022/07/21 05:09:19;;;;;;;50.50;41.10;;;19.20;99.90;;;;;;5061748;28;20052;-78
2022/07/21 05:11:45;;;;;;;50.97;41.33;;;19.30;99.90;;;;;;5041616;28;20036;-78
2022/07/21 05:14:11;;;;;;;53.73;40.50;;;19.20;99.90;;;;;;5056580;28;20561;-78
2022/07/21 05:16:37;;;;;;;52.07;40.87;;;19.20;99.90;;;;;;5043677;28;20055;-78
2022/07/21 05:19:04;;;;;;;53.37;43.37;;;19.20;99.90;;;;;;5046573;28;20048;-78
2022/07/21 05:21:30;;;;;;;64.07;46.37;;;19.20;99.90;;;;;;5062784;28;20134;-77
2022/07/21 05:23:56;;;;;;;47.80;39.53;;;19.20;99.90;;;;;;5060484;28;20045;-77
2022/07/21 05:26:22;;;;;;;50.57;42.07;;;19.30;99.90;;;;;;5052268;28;20079;-77
2022/07/21 05:28:48;;;;;;;50.43;42.30;;;19.20;99.90;;;;;;5035410;28;20045;-78
2022/07/21 05:31:14;;;;;;;44.43;39.23;;;19.30;99.90;;;;;;5040552;28;20045;-78
2022/07/21 05:33:40;;;;;;;52.07;42.10;;;19.30;99.90;;;;;;5057197;28;20393;-77
2022/07/21 05:36:08;;;;;;;56.97;43.20;;;19.30;99.90;;;;;;5047934;28;20090;-77
2022/07/21 05:38:33;;;;;;;49.97;43.00;;;19.30;99.90;;;;;;5040635;28;20041;-77
2022/07/21 05:40:59;;;;;;;46.10;39.30;;;19.30;99.90;;;;;;5056478;28;20452;-77
2022/07/21 05:43:25;;;;;;;47.97;40.10;;;19.30;99.90;;;;;;5032236;28;20491;-77
2022/07/21 05:45:51;;;;;;;49.77;41.30;;;19.40;99.90;;;;;;5065980;28;20138;-78
2022/07/21 05:48:17;;;;;;;48.63;42.57;;;19.40;99.90;;;;;;5054323;28;20051;-76
2022/07/21 05:50:43;;;;;;;49.60;40.43;;;19.40;99.90;;;;;;5051277;28;20048;-78
2022/07/21 05:53:10;;;;;;;46.20;40.30;;;19.40;99.90;;;;;;5055031;28;20103;-77
2022/07/21 05:55:36;;;;;;;47.77;41.47;;;19.50;99.90;;;;;;5052562;28;20091;-76
2022/07/21 05:58:02;;;;;;;42.23;37.20;;;19.60;99.90;;;;;;5045047;28;20479;-76
2022/07/21 06:00:28;;;;;;;41.50;36.93;;;19.70;99.90;;;;;;5053193;28;20056;-77
2022/07/21 06:02:53;;;;;;;43.10;36.57;;;19.80;99.90;;;;;;5065986;28;20439;-77
2022/07/21 06:05:19;;;;;;;39.87;35.57;;;19.80;99.90;;;;;;5035758;28;20550;-77
2022/07/21 06:07:48;;;;;;;40.83;36.03;;;19.90;99.90;;;;;;5057007;28;20094;-76
2022/07/21 06:10:15;;;;;;;37.50;33.37;;;20.00;99.90;;;;;;5047084;28;20048;-78
2022/07/21 06:12:41;;;;;;;38.97;34.27;;;20.00;99.90;;;;;;5056687;28;20121;-76
2022/07/21 06:15:08;;;;;;;36.83;32.27;;;20.00;99.90;;;;;;5054110;28;20041;-78
2022/07/21 06:17:39;;;;;;;37.50;33.53;;;20.00;99.90;;;;;;5069722;28;20071;-78
2022/07/21 06:20:06;;;;;;;37.57;33.70;;;20.00;99.90;;;;;;5058451;28;20461;-75
2022/07/21 06:22:32;;;;;;;39.67;35.20;;;19.90;99.90;;;;;;5038008;28;20080;-76
2022/07/21 06:24:57;;;;;;;37.67;33.70;;;19.80;99.90;;;;;;5052898;28;20478;-76
2022/07/21 06:27:24;;;;;;;36.93;33.03;;;19.80;99.90;;;;;;5056978;28;20088;-77
2022/07/21 06:29:50;;;;;;;36.43;31.47;;;19.80;99.90;;;;;;5079303;28;20499;-77
2022/07/21 06:32:16;;;;;;;36.63;33.10;;;19.80;99.90;;;;;;5029388;28;20090;-77
2022/07/21 06:34:42;;;;;;;36.07;32.30;;;19.70;99.90;;;;;;5037484;28;20075;-79
2022/07/21 06:37:07;;;;;;;39.10;34.10;;;19.70;99.90;;;;;;5056728;28;20055;-77
2022/07/21 06:39:33;;;;;;;34.67;30.80;;;19.70;99.90;;;;;;5046209;28;20469;-77
2022/07/21 06:41:59;;;;;;;33.90;29.97;;;19.60;99.90;;;;;;5063035;28;20480;-77
2022/07/21 06:44:28;;;;;;;36.97;31.03;;;19.60;99.90;;;;;;5047699;28;20044;-77
2022/07/21 06:46:54;;;;;;;34.47;30.90;;;19.60;99.90;;;;;;5054746;28;20044;-77
2022/07/21 06:49:20;;;;;;;32.13;28.73;;;19.60;99.90;;;;;;5063170;28;20049;-77
2022/07/21 06:51:45;;;;;;;31.87;28.70;;;19.50;99.90;;;;;;5035126;28;20136;-77
2022/07/21 06:54:11;;;;;;;32.70;29.10;;;19.50;99.90;;;;;;5056190;28;20059;-77
2022/07/21 06:56:37;;;;;;;37.13;29.63;;;19.50;99.90;;;;;;5037039;28;20124;-77
2022/07/21 06:59:02;;;;;;;37.87;32.33;;;19.50;99.90;;;;;;5044409;28;20040;-77
2022/07/21 07:01:30;;;;;;;36.53;32.57;;;19.50;99.90;;;;;;5032373;28;20525;-76
2022/07/21 07:03:55;;;;;;;38.73;33.87;;;19.50;99.90;;;;;;5056656;28;20507;-76
2022/07/21 07:06:23;;;;;;;39.57;34.90;;;19.50;99.90;;;;;;5042321;28;20093;-77
2022/07/21 07:08:48;;;;;;;36.80;32.73;;;19.40;99.90;;;;;;5068307;28;20045;-76
2022/07/21 07:11:14;;;;;;;41.10;34.77;;;19.50;99.90;;;;;;5038375;28;20051;-79
2022/07/21 07:13:40;;;;;;;41.23;34.93;;;19.50;99.90;;;;;;5053398;28;20419;-77
2022/07/21 07:16:06;;;;;;;40.27;35.97;;;19.60;99.90;;;;;;5054984;28;20052;-76
2022/07/21 07:18:33;;;;;;;38.97;34.70;;;19.60;99.90;;;;;;5056703;28;20072;-77
2022/07/21 07:20:59;;;;;;;38.60;34.50;;;19.70;99.90;;;;;;5039857;28;20045;-77
2022/07/21 07:23:25;;;;;;;40.37;36.00;;;19.70;99.90;;;;;;5036186;28;20059;-78
2022/07/21 07:25:50;;;;;;;39.30;35.03;;;19.80;99.90;;;;;;5049195;28;20045;-78
2022/07/21 07:28:16;;;;;;;40.17;35.47;;;19.90;99.90;;;;;;5043410;28;20120;-77
2022/07/21 07:30:42;;;;;;;41.23;36.90;;;19.80;99.90;;;;;;5038499;28;20746;-76
2022/07/21 07:33:08;;;;;;;40.77;35.97;;;19.90;99.90;;;;;;5041471;28;20488;-77
2022/07/21 07:35:35;;;;;;;39.97;35.73;;;20.00;99.90;;;;;;5046210;28;20072;-76
2022/07/21 07:38:01;;;;;;;42.90;37.53;;;20.10;99.90;;;;;;5021278;28;20064;-77
2022/07/21 07:40:27;;;;;;;41.50;37.00;;;20.10;99.90;;;;;;5046405;28;20036;-77
2022/07/21 07:42:52;;;;;;;49.37;40.27;;;20.10;99.90;;;;;;5034491;28;20041;-78
2022/07/21 07:45:18;;;;;;;42.93;37.87;;;20.10;99.90;;;;;;5036664;28;20067;-77
2022/07/21 07:47:44;;;;;;;44.10;38.10;;;20.20;99.90;;;;;;5053620;28;20095;-78
2022/07/21 07:50:12;;;;;;;45.93;39.53;;;20.20;99.90;;;;;;5035724;28;20530;-77
2022/07/21 07:52:41;;;;;;;46.67;39.27;;;20.30;99.90;;;;;;5061393;28;20088;-77
2022/07/21 07:55:10;;;;;;;47.10;40.07;;;20.40;99.90;;;;;;5055920;28;20726;-78
2022/07/21 07:57:36;;;;;;;45.30;40.33;;;20.40;99.90;;;;;;5060834;28;20090;-77
2022/07/21 08:00:07;;;;;;;49.03;39.57;;;20.40;99.90;;;;;;5059666;28;20426;-78
2022/07/21 08:02:37;;;;;;;47.60;40.33;;;20.50;99.90;;;;;;5081394;28;20037;-77
2022/07/21 08:05:04;;;;;;;45.83;40.77;;;20.70;99.90;;;;;;5041215;28;20056;-78
2022/07/21 08:07:30;;;;;;;46.10;39.73;;;20.90;99.90;;;;;;5041317;28;20041;-78
2022/07/21 08:09:57;;;;;;;43.27;38.67;;;21.10;99.90;;;;;;5060468;28;20091;-78
2022/07/21 08:12:23;;;;;;;43.17;38.47;;;21.20;99.90;;;;;;5046308;28;20155;-78
2022/07/21 08:14:49;;;;;;;43.20;37.43;;;21.30;99.90;;;;;;5043278;28;20127;-78
2022/07/21 08:17:16;;;;;;;45.93;39.30;;;21.30;99.90;;;;;;5035376;28;20060;-80
2022/07/21 08:19:42;;;;;;;41.10;34.43;;;21.50;99.90;;;;;;5041072;28;20036;-78
2022/07/21 08:22:08;;;;;;;39.43;34.43;;;21.70;99.90;;;;;;5033672;28;20574;-78
2022/07/21 08:24:33;;;;;;;36.83;32.95;;;21.80;99.90;;;;;;5054825;28;20286;-78
2022/07/21 08:27:00;;;;;;;35.67;31.90;;;21.90;99.90;;;;;;5064865;28;20072;-79
2022/07/21 08:29:26;;;;;;;33.70;30.00;;;22.00;99.90;;;;;;5058780;28;20063;-77
2022/07/21 08:31:52;;;;;;;38.77;31.13;;;22.10;99.90;;;;;;5033129;28;20052;-77
2022/07/21 08:34:18;;;;;;;32.07;28.77;;;22.20;99.90;;;;;;5043253;28;20049;-78
2022/07/21 08:36:43;;;;;;;31.17;27.87;;;22.40;99.90;;;;;;5047210;28;20036;-78
2022/07/21 08:39:09;;;;;;;31.17;26.95;;;22.50;99.90;;;;;;5041358;28;20572;-77
2022/07/21 08:41:36;;;;;;;28.92;25.83;;;22.30;99.90;;;;;;5038072;28;20037;-78
2022/07/21 08:44:04;;;;;;;28.55;25.50;;;22.40;99.90;;;;;;5034328;28;20037;-80
2022/07/21 08:46:33;;;;;;;28.00;25.20;;;22.50;99.90;;;;;;5042835;28;20535;-78
2022/07/21 08:49:02;;;;;;;24.02;21.58;;;22.50;99.90;;;;;;5054468;28;20772;-78
2022/07/21 08:51:31;;;;;;;25.38;22.80;;;22.50;99.90;;;;;;5039756;28;20504;-78
2022/07/21 08:53:57;;;;;;;26.13;23.53;;;22.40;99.90;;;;;;5039766;28;20048;-77
2022/07/21 08:56:23;;;;;;;29.65;25.88;;;22.20;99.90;;;;;;5016520;28;20040;-77
2022/07/21 08:58:49;;;;;;;31.33;27.25;;;22.10;99.90;;;;;;5036621;28;21734;-78
2022/07/21 09:01:16;;;;;;;25.57;22.93;;;22.20;99.90;;;;;;5064030;28;20048;-77
2022/07/21 09:03:42;;;;;;;24.33;21.83;;;22.40;99.90;;;;;;5040141;28;20049;-81
2022/07/21 09:06:11;;;;;;;25.53;22.83;;;22.50;99.90;;;;;;5039419;28;20040;-78
2022/07/21 09:08:38;;;;;;;25.73;23.02;;;22.60;99.90;;;;;;5028416;28;20066;-80
2022/07/21 09:11:17;;;;;;;23.77;21.33;;;22.70;99.90;;;;;;5067267;28;20700;-77
2022/07/21 09:13:44;;;;;;;24.42;21.88;;;22.80;99.90;;;;;;5055049;28;20036;-77
2022/07/21 09:16:10;;;;;;;27.35;24.45;;;23.00;99.90;;;;;;5042821;28;20033;-77
2022/07/21 09:18:47;;;;;;;29.05;25.92;;;23.10;99.90;;;;;;5065168;28;20033;-78
2022/07/21 09:21:15;;;;;;;32.83;27.38;;;22.90;99.90;;;;;;5059106;28;20135;-77
2022/07/21 09:23:41;;;;;;;28.77;25.63;;;22.80;99.90;;;;;;5027551;28;20091;-79
2022/07/21 09:26:07;;;;;;;25.70;22.90;;;22.80;99.90;;;;;;5049032;28;20056;-77
2022/07/21 09:28:33;;;;;;;26.20;23.48;;;22.70;99.90;;;;;;5036721;28;20032;-77
2022/07/21 09:31:01;;;;;;;27.50;24.17;;;22.70;99.90;;;;;;5044935;28;20449;-77
2022/07/21 09:33:31;;;;;;;29.25;25.35;;;22.70;99.90;;;;;;5040477;28;20049;-78
2022/07/21 09:36:02;;;;;;;26.42;23.55;;;22.70;99.90;;;;;;5042969;28;20039;-76
2022/07/21 09:38:32;;;;;;;27.23;23.65;;;22.60;99.90;;;;;;5029347;28;20098;-78
2022/07/21 09:41:10;;;;;;;23.98;21.48;;;22.60;99.90;;;;;;5044826;28;20071;-78
2022/07/21 09:43:41;;;;;;;19.80;17.80;;;22.60;99.90;;;;;;5057490;28;20037;-77
2022/07/21 09:46:17;;;;;;;21.80;18.75;;;22.60;99.90;;;;;;5045858;28;20044;-77
2022/07/21 09:48:44;;;;;;;20.90;18.85;;;22.60;99.90;;;;;;5046353;28;20049;-78
2022/07/21 09:51:26;;;;;;;24.45;21.85;;;22.60;99.90;;;;;;5061523;28;20136;-80
2022/07/21 09:53:55;;;;;;;25.77;23.17;;;22.70;99.90;;;;;;5050664;28;20426;-77
2022/07/21 09:56:22;;;;;;;25.95;22.55;;;22.60;99.90;;;;;;5026595;28;20044;-80
2022/07/21 09:58:50;;;;;;;25.50;22.40;;;22.60;99.90;;;;;;5052343;28;20033;-78
2022/07/21 10:01:16;;;;;;;25.10;22.20;;;22.40;99.90;;;;;;5040955;28;20049;-77
2022/07/21 10:03:44;;;;;;;23.58;21.15;;;22.20;99.90;;;;;;5047296;28;20058;-77
2022/07/21 10:06:10;;;;;;;30.00;26.80;;;22.10;99.90;;;;;;5045650;28;20474;-77
2022/07/21 10:08:38;;;;;;;36.47;31.88;;;22.00;99.90;;;;;;5044843;28;20121;-80
2022/07/21 10:11:04;;;;;;;40.83;33.83;;;21.90;99.90;;;;;;5063199;28;20159;-78
2022/07/21 10:13:30;;;;;;;40.17;33.80;;;21.80;99.90;;;;;;5068066;28;20040;-78
2022/07/21 10:15:58;;;;;;;36.30;32.08;;;21.60;99.90;;;;;;5033685;28;20062;-76
2022/07/21 10:18:26;;;;;;;36.83;32.67;;;21.50;99.90;;;;;;5039463;28;20036;-77
2022/07/21 10:21:02;;;;;;;40.45;32.88;;;21.40;99.90;;;;;;5040886;28;20075;-75
2022/07/21 10:23:35;;;;;;;36.65;31.52;;;21.40;99.90;;;;;;5028633;28;20499;-77
2022/07/21 10:26:05;;;;;;;35.63;30.92;;;21.30;99.90;;;;;;5059199;28;20148;-78
2022/07/21 10:28:31;;;;;;;42.47;33.42;;;21.20;99.90;;;;;;5068061;28;20053;-78
2022/07/21 10:30:58;;;;;;;36.08;31.95;;;21.10;99.90;;;;;;5048890;28;20040;-77
2022/07/21 10:33:52;;;;;;;41.15;33.58;;;21.10;99.90;;;;;;5047547;28;20676;-76
2022/07/21 10:36:33;;;;;;;;;;;21.10;99.90;;;;;;5056851;28;20041;-76
2022/07/21 10:39:17;;;;;;;39.90;33.95;;;21.10;99.90;;;;;;5039826;28;20387;-77
2022/07/21 10:41:45;;;;;;;40.75;34.53;;;21.20;99.90;;;;;;5064024;28;20049;-77
2022/07/21 10:44:37;;;;;;;42.30;36.67;;;21.20;99.90;;;;;;5038930;28;20076;-77
2022/07/21 10:47:06;;;;;;;41.95;36.88;;;21.30;99.90;;;;;;5042430;28;20051;-77
2022/07/21 10:49:48;;;;;;;38.90;34.05;;;21.30;99.90;;;;;;5047429;28;20105;-77
2022/07/21 10:53:08;;;;;;;41.28;34.17;;;21.40;99.90;;;;;;5057490;28;20049;-77
2022/07/21 10:55:36;;;;;;;38.20;34.05;;;21.50;99.90;;;;;;5049530;28;20068;-78
2022/07/21 10:58:13;;;;;;;38.45;34.33;;;21.80;99.90;;;;;;5038784;28;20531;-77
2022/07/21 11:00:44;;;;;;;40.25;35.35;;;22.00;99.90;;;;;;5035197;28;20049;-77
2022/07/21 11:03:16;;;;;;;38.08;33.65;;;22.20;99.90;;;;;;5035150;28;20128;-78
2022/07/21 11:06:13;;;;;;;42.10;35.60;;;22.40;99.90;;;;;;5051336;28;20124;-77
2022/07/21 11:08:43;;;;;;;36.17;32.30;;;22.50;99.90;;;;;;5039945;28;20492;-77
2022/07/21 11:11:10;;;;;;;42.08;34.08;;;22.60;99.90;;;;;;5039767;28;20044;-77
2022/07/21 11:14:04;;;;;;;39.42;35.08;;;22.60;99.90;;;;;;5043691;28;20056;-77
2022/07/21 11:17:07;;;;;;;40.83;35.50;;;22.60;99.90;;;;;;5054300;28;20534;-77
2022/07/21 11:19:40;;;;;;;40.80;34.03;;;22.60;99.90;;;;;;5048273;28;20766;-78
2022/07/21 11:22:11;;;;;;;38.90;33.67;;;22.60;99.90;;;;;;5040861;28;20469;-77
2022/07/21 11:24:37;;;;;;;37.70;33.70;;;22.60;99.90;;;;;;5061519;28;20439;-76
2022/07/21 11:27:07;;;;;;;38.92;33.45;;;22.50;99.90;;;;;;5058571;28;20048;-79
2022/07/21 11:29:36;;;;;;;30.30;27.10;;;22.50;99.90;;;;;;5044922;28;20070;-77
2022/07/21 11:32:02;;;;;;;29.90;26.55;;;22.20;99.90;;;;;;5066003;28;20482;-78
2022/07/21 11:34:41;;;;;;;28.48;25.63;;;22.00;99.90;;;;;;5031838;28;20074;-77
2022/07/21 11:37:08;;;;;;;21.77;19.48;;;21.70;99.90;;;;;;5081231;28;20044;-77
2022/07/21 11:39:35;;;;;;;17.23;15.07;;;21.50;99.90;;;;;;5048300;28;20487;-76
2022/07/21 11:42:05;;;;;;;15.40;13.48;;;21.20;99.90;;;;;;5062131;28;20033;-77
2022/07/21 11:44:32;;;;;;;16.33;14.55;;;21.00;99.90;;;;;;5042930;28;20041;-77
2022/07/21 11:47:00;;;;;;;20.08;16.52;;;20.90;99.90;;;;;;5053760;28;20044;-77
2022/07/21 11:49:27;;;;;;;21.83;18.17;;;20.80;99.90;;;;;;5058803;28;20041;-78
2022/07/21 11:51:55;;;;;;;26.15;22.20;;;20.70;99.90;;;;;;5059490;28;20052;-76
2022/07/21 11:54:24;;;;;;;28.17;23.70;;;20.50;99.90;;;;;;5039203;28;20110;-76
2022/07/21 11:56:50;;;;;;;28.88;23.67;;;20.40;99.90;;;;;;5062713;28;20048;-76
2022/07/21 11:59:17;;;;;;;31.13;27.25;;;20.40;99.90;;;;;;5057216;28;20062;-77
2022/07/21 12:01:52;;;;;;;32.90;27.67;;;20.40;99.90;;;;;;5038042;28;20500;-77
2022/07/21 12:04:41;;;;;;;33.83;28.17;;;20.40;99.90;;;;;;5058403;28;20040;-77
2022/07/21 12:07:12;;;;;;;36.78;29.27;;;20.40;99.90;;;;;;5057892;28;20041;-76
2022/07/21 12:09:39;;;;;;;35.67;29.07;;;20.40;99.90;;;;;;5039738;28;20048;-77
2022/07/21 12:12:06;;;;;;;38.28;32.25;;;20.50;99.90;;;;;;5034769;28;20041;-77
2022/07/21 12:14:47;;;;;;;36.67;32.65;;;20.60;99.90;;;;;;5039901;28;20123;-77
2022/07/21 12:17:14;;;;;;;41.00;34.20;;;20.80;99.90;;;;;;5035476;28;20401;-76
2022/07/21 12:19:42;;;;;;;43.83;35.28;;;20.90;99.90;;;;;;5044386;28;20530;-77
2022/07/21 12:22:09;;;;;;;45.45;37.08;;;21.00;99.90;;;;;;5050251;28;20044;-76
2022/07/21 12:24:53;;;;;;;43.42;37.90;;;21.10;99.90;;;;;;5051017;28;20663;-75
2022/07/21 12:27:20;;;;;;;44.28;37.38;;;21.30;99.90;;;;;;5047296;28;20047;-76
2022/07/21 12:29:46;;;;;;;39.78;34.33;;;21.40;99.90;;;;;;5041833;28;20515;-76
2022/07/21 12:32:12;;;;;;;33.95;29.33;;;21.50;99.90;;;;;;5050213;28;20044;-77
2022/07/21 12:34:50;;;;;;;34.05;29.20;;;21.50;99.90;;;;;;5048513;28;20831;-79